aviador You're here:

EINN Decoded Metar

SHANNON in IRELAND
Report Time2018-07-16 14:00:00
UTC Time2018-07-16 14:08:26
Flight Rules vfr VFR
Wind270° at 09 kt
W.Decomp.*RWY 24: 7.4 kt HW 5.2 kt RCW
W.Rank270° ranks 4
Current wind is below 270° avg. (10.8)
Visibility9999 m
Phenomena:N/A
Clouds:Few 026 Hf
Broken 060 Hf
Expected CloudBase > 3,600 ft AGL from Temp-Dew spread
Ceiling6,000 ft
Temp18°C (ISA +3)
Dew Point09°C (56% RH)
AAT14.6°C
QNH1014 hPa
Density Alt554 ft
Elevation66 ft
Report Wrong Elevation
Raw Report
METAR EINN 161400Z 27009KT 9999 FEW026 BKN060 18/09 Q1014 NOSIG=

Extra information for EINN:More info

Metar Taf Metar & Taf Last 4 Metars F.Rules Stats Wind Profile Meteogram Temp Stats Airport Information Weather charts Add Link Nearby VenuesMetar ALERT Operation Metar Decoded Social comments